Time;durP1;ratioP1;P1;durP2;ratioP2;P2;SDS_P1;SDS_P2;PMS_P1;PMS_P2;Temp;Humidity;BMP_temperature;BMP_pressure;BME280_temperature;BME280_humidity;BME280_pressure;Samples;Min_cycle;Max_cycle;Signal;HPM_P1;HPM_P2
2021/01/15 04:33:57;;;;;;;11.77;11.27;;;-0.60;99.90;;;;;;4920885;29;20493;-74
2021/01/15 04:36:25;;;;;;;13.30;12.57;;;-0.60;99.90;;;;;;4914028;29;20457;-72
2021/01/15 04:38:51;;;;;;;13.53;12.73;;;-0.60;99.90;;;;;;4914020;29;20457;-72
2021/01/15 04:41:21;;;;;;;12.63;11.80;;;-0.50;99.90;;;;;;4913854;29;20462;-74
2021/01/15 04:43:53;;;;;;;12.87;12.07;;;-0.50;99.90;;;;;;4913984;29;20461;-72
2021/01/15 04:46:21;;;;;;;12.50;11.53;;;-0.50;99.90;;;;;;4913938;29;20459;-72
2021/01/15 04:48:49;;;;;;;12.27;11.57;;;-0.70;99.90;;;;;;4913146;29;20512;-72
2021/01/15 04:51:19;;;;;;;12.80;12.00;;;-0.80;99.90;;;;;;4914016;29;20450;-72
2021/01/15 04:53:54;;;;;;;12.30;11.60;;;-0.80;99.90;;;;;;4913883;29;20529;-73
2021/01/15 04:56:28;;;;;;;13.30;12.10;;;-0.90;99.90;;;;;;4913751;29;20658;-73
2021/01/15 04:58:56;;;;;;;12.43;11.73;;;-0.90;99.90;;;;;;4914461;29;20447;-74
2021/01/15 05:01:23;;;;;;;12.80;12.07;;;-0.90;99.90;;;;;;4930691;29;20453;-74
2021/01/15 05:03:51;;;;;;;12.37;11.37;;;-0.80;99.90;;;;;;4932152;29;20457;-74
2021/01/15 05:06:21;;;;;;;14.20;13.13;;;-0.70;99.90;;;;;;4929760;29;20966;-74
2021/01/15 05:08:54;;;;;;;13.40;12.60;;;-0.60;99.90;;;;;;4932071;29;20648;-74
2021/01/15 05:11:21;;;;;;;12.70;12.00;;;-0.50;99.90;;;;;;4930145;29;20450;-73
2021/01/15 05:13:52;;;;;;;12.57;11.87;;;-0.40;99.90;;;;;;4932031;29;20961;-74
2021/01/15 05:16:19;;;;;;;14.20;13.20;;;-0.50;99.90;;;;;;4929932;29;20456;-74
2021/01/15 05:18:46;;;;;;;13.03;11.90;;;-0.50;99.90;;;;;;4932352;29;20457;-74
2021/01/15 05:21:12;;;;;;;11.93;11.30;;;-0.40;99.90;;;;;;4932060;29;20445;-75
2021/01/15 05:23:39;;;;;;;11.93;11.13;;;-0.30;99.90;;;;;;4932043;29;20514;-74
2021/01/15 05:26:05;;;;;;;12.17;11.47;;;-0.30;99.90;;;;;;4931816;29;20460;-73
2021/01/15 05:28:32;;;;;;;12.10;11.40;;;-0.20;99.90;;;;;;4931496;29;21086;-74
2021/01/15 05:30:58;;;;;;;12.70;11.87;;;-0.20;99.90;;;;;;4928193;29;20478;-73
2021/01/15 05:33:25;;;;;;;10.97;10.33;;;-0.20;99.90;;;;;;4922477;29;20467;-74
2021/01/15 05:35:52;;;;;;;12.00;11.30;;;-0.20;99.90;;;;;;4920763;29;20951;-73
2021/01/15 05:38:22;;;;;;;12.50;11.70;;;-0.20;99.90;;;;;;4922629;29;20448;-74
2021/01/15 05:40:51;;;;;;;12.43;11.67;;;-0.30;99.90;;;;;;4923057;29;20830;-74
2021/01/15 05:43:22;;;;;;;12.30;11.47;;;-0.30;99.90;;;;;;4929749;29;20461;-74
2021/01/15 05:46:10;;;;;;;12.93;12.17;;;-0.30;99.90;;;;;;4932042;29;20851;-74
2021/01/15 05:48:37;;;;;;;11.87;11.23;;;-0.30;99.90;;;;;;4926413;29;20493;-71
2021/01/15 05:51:04;;;;;;;11.90;11.17;;;-0.40;99.90;;;;;;4931926;29;20518;-73
2021/01/15 05:53:41;;;;;;;12.77;11.83;;;-0.40;99.90;;;;;;4931660;29;20970;-72
2021/01/15 05:56:08;;;;;;;11.40;10.80;;;-0.50;99.90;;;;;;4929920;29;20457;-72
2021/01/15 05:58:34;;;;;;;12.20;11.50;;;-0.50;99.90;;;;;;4931836;29;20480;-73
2021/01/15 06:01:00;;;;;;;11.47;10.87;;;-0.60;99.90;;;;;;4933891;29;20453;-72
2021/01/15 06:03:27;;;;;;;12.10;11.50;;;-0.50;99.90;;;;;;4935388;29;20450;-72
2021/01/15 06:05:54;;;;;;;12.17;11.33;;;-0.50;99.90;;;;;;4935212;29;21022;-72
2021/01/15 06:08:20;;;;;;;12.13;11.43;;;-0.60;99.90;;;;;;4935102;29;20489;-72
2021/01/15 06:10:49;;;;;;;11.53;10.93;;;-0.60;99.90;;;;;;4934899;29;20480;-73
2021/01/15 06:13:37;;;;;;;13.20;12.40;;;-0.70;99.90;;;;;;4934755;29;20458;-73
2021/01/15 06:16:05;;;;;;;12.27;11.30;;;-0.70;99.90;;;;;;4935094;29;20453;-73
2021/01/15 06:18:31;;;;;;;13.07;12.37;;;-0.60;99.90;;;;;;4934662;29;20879;-73
2021/01/15 06:21:08;;;;;;;13.23;12.53;;;-0.70;99.90;;;;;;4935315;29;20928;-73
2021/01/15 06:23:40;;;;;;;12.87;12.07;;;-0.70;99.90;;;;;;4935069;29;20547;-73
2021/01/15 06:26:08;;;;;;;12.70;12.00;;;-0.70;99.90;;;;;;4934725;29;20457;-73
2021/01/15 06:28:36;;;;;;;12.93;12.07;;;-0.80;99.90;;;;;;4935087;29;20960;-73
2021/01/15 06:31:08;;;;;;;12.53;11.90;;;-0.80;99.90;;;;;;4935048;29;20480;-75
2021/01/15 06:33:35;;;;;;;12.27;11.27;;;-0.90;99.90;;;;;;4935049;29;20909;-74
2021/01/15 06:36:04;;;;;;;13.33;12.53;;;-0.90;99.90;;;;;;4935029;29;20476;-73
2021/01/15 06:38:32;;;;;;;11.77;10.87;;;-0.90;99.90;;;;;;4935316;29;20544;-74
2021/01/15 06:40:59;;;;;;;13.30;12.60;;;-1.00;99.90;;;;;;4935487;29;20469;-74
2021/01/15 06:43:27;;;;;;;12.87;11.97;;;-1.10;99.90;;;;;;4935329;29;20446;-74
2021/01/15 06:45:55;;;;;;;13.20;12.20;;;-1.10;99.90;;;;;;4935115;29;20955;-73
2021/01/15 06:48:24;;;;;;;13.67;12.83;;;-1.10;99.90;;;;;;4934971;29;20477;-73
2021/01/15 06:50:52;;;;;;;20.77;14.40;;;-1.10;99.90;;;;;;4935050;29;20449;-74
2021/01/15 06:53:24;;;;;;;11.10;10.40;;;-1.10;99.90;;;;;;4934684;29;20704;-74
2021/01/15 06:55:51;;;;;;;12.50;11.70;;;-1.10;99.90;;;;;;4934979;29;20469;-73
2021/01/15 06:58:25;;;;;;;13.97;12.90;;;-1.20;99.90;;;;;;4934708;29;20469;-73
2021/01/15 07:01:16;;;;;;;12.40;11.70;;;-1.20;99.90;;;;;;4935237;29;20464;-73
2021/01/15 07:04:24;;;;;;;13.03;12.17;;;-1.20;99.90;;;;;;4934865;29;20858;-74
2021/01/15 07:07:08;;;;;;;12.93;12.03;;;-1.20;99.90;;;;;;4934895;29;20456;-75
2021/01/15 07:09:35;;;;;;;13.97;12.80;;;-1.10;99.90;;;;;;4934580;29;20880;-74
2021/01/15 07:12:04;;;;;;;12.60;11.70;;;-1.10;99.90;;;;;;4934223;29;20450;-73
2021/01/15 07:14:42;;;;;;;13.80;13.00;;;-1.10;99.90;;;;;;4934377;29;21011;-73
2021/01/15 07:17:14;;;;;;;14.53;13.20;;;-1.00;99.90;;;;;;4934555;29;20456;-74
2021/01/15 07:19:43;;;;;;;14.40;13.40;;;-1.00;99.90;;;;;;4934850;29;20914;-74
2021/01/15 07:22:11;;;;;;;13.87;12.87;;;-1.00;99.90;;;;;;4934688;29;20460;-74
2021/01/15 07:24:39;;;;;;;15.27;14.10;;;-1.00;99.90;;;;;;4934413;29;20454;-73
2021/01/15 07:27:07;;;;;;;14.00;13.10;;;-0.90;99.90;;;;;;4934338;29;20533;-73
2021/01/15 07:29:35;;;;;;;16.10;14.07;;;-0.90;99.90;;;;;;4934043;29;21117;-73
2021/01/15 07:32:06;;;;;;;13.60;12.40;;;-0.80;99.90;;;;;;4933884;29;21058;-74
2021/01/15 07:34:35;;;;;;;13.47;12.50;;;-0.80;99.90;;;;;;4934175;29;20446;-75
2021/01/15 07:37:17;;;;;;;14.70;13.53;;;-0.70;99.90;;;;;;4934105;29;20468;-73
2021/01/15 07:39:59;;;;;;;14.97;13.70;;;-0.70;99.90;;;;;;4934147;29;20516;-73
2021/01/15 07:42:39;;;;;;;14.20;13.17;;;-0.50;99.90;;;;;;4934347;29;20516;-74
2021/01/15 07:45:06;;;;;;;13.37;12.17;;;-0.30;99.90;;;;;;4934171;29;20629;-74
2021/01/15 07:47:37;;;;;;;15.00;13.77;;;-0.10;99.90;;;;;;4933898;29;20456;-74
2021/01/15 07:50:05;;;;;;;14.30;13.20;;;0.10;99.90;;;;;;4934291;29;20441;-73
2021/01/15 07:52:33;;;;;;;14.20;13.10;;;0.40;99.90;;;;;;4933665;29;20507;-73
2021/01/15 07:55:01;;;;;;;15.07;13.77;;;0.60;99.90;;;;;;4933665;29;20461;-74
2021/01/15 07:57:28;;;;;;;16.90;14.97;;;0.90;99.90;;;;;;4933999;29;20460;-74
2021/01/15 07:59:55;;;;;;;15.77;14.27;;;1.20;99.90;;;;;;4933830;29;20467;-74
2021/01/15 08:02:21;;;;;;;12.60;11.80;;;1.20;99.90;;;;;;4933389;29;20535;-74
2021/01/15 08:04:48;;;;;;;14.57;13.57;;;1.20;99.90;;;;;;4933535;29;20525;-72
2021/01/15 08:07:22;;;;;;;14.73;13.43;;;1.10;99.90;;;;;;4933627;29;20446;-73
2021/01/15 08:09:49;;;;;;;13.03;12.13;;;1.20;99.90;;;;;;4933737;29;20457;-73
2021/01/15 08:12:16;;;;;;;15.50;14.20;;;1.40;99.90;;;;;;4933495;29;20449;-72
2021/01/15 08:14:42;;;;;;;16.17;14.77;;;1.80;99.90;;;;;;4933471;29;20453;-73
2021/01/15 08:17:11;;;;;;;14.40;13.50;;;2.30;99.90;;;;;;4933400;29;20481;-73
2021/01/15 08:19:38;;;;;;;16.00;14.70;;;2.60;99.90;;;;;;4933595;29;20462;-72
2021/01/15 08:22:07;;;;;;;15.83;14.67;;;3.20;99.90;;;;;;4932688;29;20465;-72
2021/01/15 08:24:33;;;;;;;16.00;14.97;;;3.70;99.90;;;;;;4933329;29;20450;-73
2021/01/15 08:27:00;;;;;;;15.37;14.17;;;4.20;99.90;;;;;;4933587;29;20463;-73
2021/01/15 08:29:28;;;;;;;15.73;14.57;;;4.30;99.90;;;;;;4933361;29;21014;-73
2021/01/15 08:31:56;;;;;;;16.20;14.90;;;4.60;99.90;;;;;;4933120;29;20490;-74
2021/01/15 08:34:24;;;;;;;15.90;14.70;;;4.40;99.10;;;;;;4932853;29;20550;-75
2021/01/15 08:36:55;;;;;;;15.80;14.70;;;4.60;99.50;;;;;;4933100;29;20477;-74
2021/01/15 08:39:21;;;;;;;15.70;14.70;;;4.70;99.40;;;;;;4933152;29;20450;-74
2021/01/15 08:41:54;;;;;;;15.30;14.13;;;4.10;98.70;;;;;;4931523;29;20453;-74
2021/01/15 08:44:23;;;;;;;16.30;14.80;;;3.30;99.90;;;;;;4933294;29;20452;-74
2021/01/15 08:46:50;;;;;;;14.10;12.90;;;3.50;99.90;;;;;;4932968;29;20854;-74
2021/01/15 08:49:16;;;;;;;15.03;14.00;;;3.60;99.90;;;;;;4932851;29;20486;-74
2021/01/15 08:51:47;;;;;;;15.23;14.13;;;3.70;99.90;;;;;;4932967;29;20457;-74
2021/01/15 08:54:13;;;;;;;14.93;13.90;;;4.10;99.90;;;;;;4933357;29;20456;-74
2021/01/15 08:56:42;;;;;;;15.90;14.80;;;5.00;99.30;;;;;;4921827;29;20841;-74
2021/01/15 08:59:10;;;;;;;15.73;14.53;;;5.70;97.80;;;;;;4931181;29;20468;-75
2021/01/15 09:01:39;;;;;;;16.40;15.40;;;6.20;96.40;;;;;;4914211;29;20462;-76
2021/01/15 09:04:06;;;;;;;15.70;14.60;;;7.00;94.70;;;;;;4921281;29;20476;-75
2021/01/15 09:06:34;;;;;;;16.30;14.87;;;7.90;93.70;;;;;;4932494;29;20453;-75
2021/01/15 09:09:04;;;;;;;17.23;16.03;;;8.80;91.50;;;;;;4932705;29;20522;-75
2021/01/15 09:11:33;;;;;;;16.67;15.50;;;8.70;90.10;;;;;;4932970;29;20481;-76
2021/01/15 09:14:00;;;;;;;15.97;14.90;;;9.00;88.30;;;;;;4914566;29;20498;-75
2021/01/15 09:16:28;;;;;;;16.37;15.37;;;9.60;89.30;;;;;;4913888;29;20457;-75
2021/01/15 09:18:56;;;;;;;17.63;15.80;;;10.30;82.40;;;;;;4914010;29;20455;-75
2021/01/15 09:21:22;;;;;;;17.13;15.93;;;10.00;80.20;;;;;;4913977;29;20532;-75
2021/01/15 09:23:49;;;;;;;17.37;16.10;;;10.10;80.30;;;;;;4913800;29;20458;-75
2021/01/15 09:26:19;;;;;;;15.87;14.93;;;9.80;81.90;;;;;;4913710;29;20458;-75
2021/01/15 09:28:46;;;;;;;17.40;16.10;;;10.50;79.60;;;;;;4913392;29;21000;-75
2021/01/15 09:31:13;;;;;;;16.13;15.23;;;10.30;77.70;;;;;;4932954;29;20481;-75
2021/01/15 09:33:47;;;;;;;16.80;15.60;;;10.50;75.50;;;;;;4933308;29;20489;-75
2021/01/15 09:36:24;;;;;;;17.83;16.70;;;10.10;76.60;;;;;;4919575;29;20470;-74
2021/01/15 09:38:51;;;;;;;18.20;16.90;;;11.20;76.10;;;;;;4917275;29;20513;-75
2021/01/15 09:41:17;;;;;;;16.93;15.90;;;9.70;76.10;;;;;;4917149;29;20461;-74
2021/01/15 09:43:44;;;;;;;16.23;15.23;;;9.40;79.10;;;;;;4914794;29;20453;-74
2021/01/15 09:46:22;;;;;;;17.77;16.30;;;9.80;80.40;;;;;;4916812;29;20938;-75
2021/01/15 09:48:48;;;;;;;16.70;15.40;;;9.30;77.90;;;;;;4916766;29;20703;-74
2021/01/15 09:51:15;;;;;;;18.97;17.57;;;9.90;79.70;;;;;;4916599;29;20547;-74
2021/01/15 09:53:42;;;;;;;17.73;16.70;;;10.60;74.90;;;;;;4916761;29;20465;-74
2021/01/15 09:56:08;;;;;;;18.03;16.67;;;9.90;75.50;;;;;;4916229;29;20802;-76
2021/01/15 09:58:34;;;;;;;18.97;17.57;;;10.10;75.90;;;;;;4916426;29;20820;-75
2021/01/15 10:01:00;;;;;;;17.67;16.23;;;10.10;75.80;;;;;;4916365;29;20454;-75
2021/01/15 10:03:26;;;;;;;17.90;16.50;;;8.80;79.40;;;;;;4916652;29;20458;-75
2021/01/15 10:05:52;;;;;;;19.20;17.63;;;9.50;80.60;;;;;;4916351;29;20462;-75
2021/01/15 10:08:23;;;;;;;16.77;15.57;;;9.90;78.20;;;;;;4916218;29;20545;-75
2021/01/15 10:10:50;;;;;;;17.63;16.23;;;9.50;77.10;;;;;;4916000;29;20678;-75
2021/01/15 10:13:16;;;;;;;17.87;16.13;;;10.10;77.20;;;;;;4916278;29;20462;-75
2021/01/15 10:15:42;;;;;;;16.70;15.50;;;11.30;74.60;;;;;;4916394;29;20458;-75
2021/01/15 10:18:09;;;;;;;16.93;15.83;;;11.60;71.10;;;;;;4915884;29;20463;-75
2021/01/15 10:20:35;;;;;;;18.50;17.13;;;11.70;69.60;;;;;;4915912;29;20732;-75
2021/01/15 10:23:02;;;;;;;17.37;16.07;;;10.60;69.70;;;;;;4915669;29;20459;-75
2021/01/15 10:25:28;;;;;;;16.30;15.20;;;11.60;72.20;;;;;;4915961;29;20466;-75
2021/01/15 10:27:55;;;;;;;16.43;15.30;;;12.00;68.70;;;;;;4915959;29;20481;-75
2021/01/15 10:30:22;;;;;;;16.53;15.23;;;12.00;67.90;;;;;;4915484;29;20964;-74
2021/01/15 10:32:48;;;;;;;17.67;16.47;;;12.40;67.60;;;;;;4915236;29;20792;-74
2021/01/15 10:35:15;;;;;;;18.10;16.67;;;12.50;67.30;;;;;;4915888;29;20462;-74
2021/01/15 10:37:41;;;;;;;18.87;17.47;;;13.00;66.80;;;;;;4915914;29;20462;-74
2021/01/15 10:40:09;;;;;;;19.37;17.93;;;13.30;64.40;;;;;;4915538;29;20554;-74
2021/01/15 10:42:38;;;;;;;19.13;17.73;;;13.20;64.20;;;;;;4915852;29;20454;-74
2021/01/15 10:45:06;;;;;;;18.43;17.10;;;14.00;63.40;;;;;;4914873;29;20534;-74
2021/01/15 10:47:33;;;;;;;18.70;17.40;;;14.20;62.00;;;;;;4914848;29;20458;-73
2021/01/15 10:49:59;;;;;;;17.90;16.40;;;13.60;62.20;;;;;;4915010;29;20454;-74
2021/01/15 10:52:25;;;;;;;18.40;16.73;;;12.90;64.70;;;;;;4915741;29;20507;-74
2021/01/15 10:54:51;;;;;;;16.90;15.80;;;12.80;64.60;;;;;;4915386;29;20534;-74
2021/01/15 10:57:17;;;;;;;17.20;16.10;;;13.00;65.10;;;;;;4915078;29;20461;-74
2021/01/15 10:59:43;;;;;;;17.53;16.40;;;13.20;64.00;;;;;;4915288;29;20826;-74
2021/01/15 11:02:10;;;;;;;18.77;17.30;;;12.70;64.10;;;;;;4915042;29;20470;-74
2021/01/15 11:04:36;;;;;;;19.20;17.40;;;12.50;64.30;;;;;;4915488;29;20485;-78
2021/01/15 11:07:05;;;;;;;17.90;16.73;;;13.30;65.00;;;;;;4915528;29;20455;-74
2021/01/15 11:09:32;;;;;;;17.03;15.93;;;13.10;63.10;;;;;;4915085;29;20498;-75
2021/01/15 11:11:59;;;;;;;18.63;17.23;;;12.90;62.30;;;;;;4915539;29;20462;-74
2021/01/15 11:14:25;;;;;;;17.27;16.10;;;12.00;63.80;;;;;;4915327;29;20559;-73
2021/01/15 11:16:52;;;;;;;18.40;17.30;;;11.80;65.30;;;;;;4914824;29;20509;-73
2021/01/15 11:19:19;;;;;;;17.70;16.70;;;12.20;65.50;;;;;;4915011;29;21193;-74
2021/01/15 11:21:45;;;;;;;18.17;16.87;;;12.20;65.20;;;;;;4915036;29;20509;-74
2021/01/15 11:24:11;;;;;;;17.63;16.23;;;12.60;64.70;;;;;;4914833;29;20463;-74
2021/01/15 11:26:38;;;;;;;17.57;16.57;;;11.50;64.70;;;;;;4914841;29;20455;-75
2021/01/15 11:29:06;;;;;;;17.60;16.10;;;11.60;65.70;;;;;;4914587;29;20768;-75
2021/01/15 11:31:32;;;;;;;19.27;17.83;;;11.50;66.20;;;;;;4914523;29;21087;-76
2021/01/15 11:33:58;;;;;;;19.10;17.50;;;11.60;67.40;;;;;;4914475;29;20490;-74
2021/01/15 11:36:30;;;;;;;19.97;18.00;;;11.20;67.40;;;;;;4914608;29;20466;-73
2021/01/15 11:38:56;;;;;;;17.27;16.07;;;11.60;68.40;;;;;;4914560;29;20549;-76
2021/01/15 11:41:23;;;;;;;18.57;17.17;;;12.70;66.60;;;;;;4914422;29;20466;-76
2021/01/15 11:43:49;;;;;;;18.03;16.83;;;12.20;64.40;;;;;;4914298;29;20863;-76
2021/01/15 11:46:15;;;;;;;18.47;17.10;;;12.90;65.20;;;;;;4914478;29;20458;-73
2021/01/15 11:48:41;;;;;;;18.80;17.40;;;13.10;64.30;;;;;;4914267;29;20502;-74
2021/01/15 11:51:09;;;;;;;20.37;18.57;;;13.20;61.90;;;;;;4914488;29;20461;-74
2021/01/15 11:53:37;;;;;;;17.80;16.50;;;13.60;63.90;;;;;;4914157;29;20553;-74
2021/01/15 11:56:05;;;;;;;19.67;17.93;;;13.70;60.30;;;;;;4914377;29;20454;-73
2021/01/15 11:58:31;;;;;;;18.90;17.40;;;14.00;61.50;;;;;;4914029;29;20461;-76
2021/01/15 12:00:57;;;;;;;18.90;17.60;;;13.20;61.10;;;;;;4914848;29;20465;-76
2021/01/15 12:03:24;;;;;;;19.17;17.60;;;12.90;63.00;;;;;;4914328;29;20458;-73
2021/01/15 12:05:51;;;;;;;19.27;17.90;;;12.70;62.20;;;;;;4913047;29;20451;-74
2021/01/15 12:08:18;;;;;;;19.73;18.43;;;13.20;62.80;;;;;;4914472;29;20490;-74
2021/01/15 12:10:45;;;;;;;21.10;19.37;;;13.30;61.80;;;;;;4914727;29;20458;-73
2021/01/15 12:13:11;;;;;;;19.07;17.77;;;13.30;61.20;;;;;;4914717;29;20454;-74
2021/01/15 12:15:38;;;;;;;19.13;17.93;;;12.90;62.60;;;;;;4919874;29;20482;-74
2021/01/15 12:18:04;;;;;;;19.93;17.90;;;13.60;61.70;;;;;;4933382;29;20814;-75
2021/01/15 12:20:35;;;;;;;19.67;18.27;;;14.00;59.90;;;;;;4933412;29;20453;-76
2021/01/15 12:23:02;;;;;;;18.60;17.30;;;13.30;61.20;;;;;;4933778;29;20457;-75
2021/01/15 12:25:28;;;;;;;20.70;19.30;;;13.30;61.80;;;;;;4933506;29;20947;-75
2021/01/15 12:27:55;;;;;;;20.43;18.93;;;13.10;60.90;;;;;;4933611;29;20536;-75
2021/01/15 12:30:22;;;;;;;19.00;17.70;;;12.60;61.10;;;;;;4933183;29;20449;-75
2021/01/15 12:32:50;;;;;;;18.10;17.00;;;11.80;62.80;;;;;;4933221;29;20489;-75
2021/01/15 12:35:16;;;;;;;19.40;18.10;;;11.70;63.70;;;;;;4933253;29;20465;-75
2021/01/15 12:37:42;;;;;;;19.53;18.03;;;11.50;64.80;;;;;;4933505;29;20458;-74
2021/01/15 12:40:10;;;;;;;17.67;16.27;;;11.00;66.20;;;;;;4933659;29;20449;-74
2021/01/15 12:42:36;;;;;;;17.03;15.87;;;10.90;67.20;;;;;;4933250;29;20454;-74
2021/01/15 12:45:03;;;;;;;18.83;17.20;;;11.30;65.30;;;;;;4933118;29;20458;-74
2021/01/15 12:47:30;;;;;;;20.27;18.77;;;10.30;67.20;;;;;;4933423;29;20509;-74
2021/01/15 12:49:56;;;;;;;19.70;18.20;;;10.40;68.10;;;;;;4933496;29;20522;-74
2021/01/15 12:52:22;;;;;;;18.10;16.80;;;10.80;67.60;;;;;;4933097;29;20453;-74
2021/01/15 12:54:48;;;;;;;18.70;17.40;;;10.10;67.50;;;;;;4933250;29;20828;-74
2021/01/15 12:57:14;;;;;;;17.13;15.93;;;10.00;68.70;;;;;;4933386;29;20460;-74
2021/01/15 12:59:41;;;;;;;17.80;16.50;;;8.90;70.30;;;;;;4933344;29;20461;-74
2021/01/15 13:02:09;;;;;;;17.27;15.97;;;7.70;74.40;;;;;;4932935;29;20967;-73
2021/01/15 13:04:35;;;;;;;16.27;15.07;;;6.90;78.20;;;;;;4933229;29;20461;-74
2021/01/15 13:07:01;;;;;;;17.50;16.20;;;6.40;81.50;;;;;;4933128;29;20449;-74
2021/01/15 13:09:28;;;;;;;16.57;15.17;;;5.90;84.10;;;;;;4934944;29;20544;-75
2021/01/15 13:11:54;;;;;;;16.63;15.43;;;5.30;87.30;;;;;;4936963;29;21020;-74
2021/01/15 13:14:20;;;;;;;16.20;15.10;;;4.70;89.90;;;;;;4936747;29;20468;-74
2021/01/15 13:16:46;;;;;;;16.77;15.47;;;4.20;91.90;;;;;;4936924;29;20464;-74
2021/01/15 13:19:13;;;;;;;16.30;15.10;;;4.10;93.30;;;;;;4936989;29;20445;-74
2021/01/15 13:21:43;;;;;;;19.40;17.70;;;4.10;94.50;;;;;;4936866;29;20454;-74
2021/01/15 13:24:09;;;;;;;18.40;16.90;;;4.10;95.70;;;;;;4936771;29;20529;-74
2021/01/15 13:26:35;;;;;;;17.07;15.73;;;4.00;96.30;;;;;;4919791;29;20553;-74
2021/01/15 13:29:01;;;;;;;17.30;16.00;;;3.80;97.00;;;;;;4917569;29;20500;-74
2021/01/15 13:31:28;;;;;;;18.57;16.93;;;3.80;97.60;;;;;;4917328;29;21017;-74
2021/01/15 13:33:54;;;;;;;18.07;16.50;;;3.90;98.20;;;;;;4916988;29;20487;-74
2021/01/15 13:36:21;;;;;;;19.20;17.67;;;3.90;98.70;;;;;;4917282;29;20810;-74
2021/01/15 13:38:47;;;;;;;18.07;16.37;;;3.90;98.80;;;;;;4917390;29;20806;-74
2021/01/15 13:41:13;;;;;;;16.90;15.40;;;3.90;98.90;;;;;;4917469;29;20572;-74
2021/01/15 13:43:39;;;;;;;17.77;16.37;;;3.80;99.00;;;;;;4917080;29;20483;-75
2021/01/15 13:46:06;;;;;;;17.70;16.30;;;3.80;99.70;;;;;;4917032;29;20450;-75
2021/01/15 13:48:36;;;;;;;18.60;17.10;;;3.70;99.90;;;;;;4917023;29;20495;-74
2021/01/15 13:51:12;;;;;;;18.80;17.00;;;3.80;99.90;;;;;;4917246;29;20508;-74
2021/01/15 13:53:39;;;;;;;19.03;17.33;;;3.80;99.90;;;;;;4916824;29;20460;-74
2021/01/15 13:56:05;;;;;;;18.30;16.57;;;3.70;99.90;;;;;;4916897;29;20628;-75
2021/01/15 13:58:34;;;;;;;17.97;16.33;;;3.60;99.90;;;;;;4916786;29;20462;-74
2021/01/15 14:01:01;;;;;;;19.13;17.20;;;3.60;99.90;;;;;;4916862;29;20458;-74
2021/01/15 14:03:27;;;;;;;17.60;15.90;;;3.70;99.90;;;;;;4916698;29;20454;-74
2021/01/15 14:05:55;;;;;;;18.60;16.90;;;3.50;99.90;;;;;;4917025;29;20450;-74
2021/01/15 14:08:22;;;;;;;18.87;17.27;;;3.50;99.90;;;;;;4916496;29;20500;-73
2021/01/15 14:10:49;;;;;;;16.50;15.30;;;3.50;99.90;;;;;;4916380;29;20481;-74
2021/01/15 14:13:15;;;;;;;19.13;17.40;;;3.50;99.90;;;;;;4916547;29;20960;-73
2021/01/15 14:15:41;;;;;;;18.27;16.40;;;3.40;99.90;;;;;;4916617;29;20458;-75
2021/01/15 14:18:07;;;;;;;18.80;17.10;;;3.40;99.90;;;;;;4927648;29;20458;-73
2021/01/15 14:20:34;;;;;;;17.37;15.97;;;3.30;99.90;;;;;;4916175;29;20454;-75
2021/01/15 14:23:00;;;;;;;17.63;16.13;;;3.20;99.90;;;;;;4916487;29;20454;-74
2021/01/15 14:25:28;;;;;;;17.40;15.90;;;3.20;99.90;;;;;;4919165;29;20450;-74
2021/01/15 14:27:55;;;;;;;17.90;16.40;;;3.20;99.90;;;;;;4931992;29;20449;-73
2021/01/15 14:30:23;;;;;;;19.33;17.53;;;3.20;99.90;;;;;;4916188;29;20457;-74
2021/01/15 14:32:51;;;;;;;16.00;14.70;;;3.20;99.90;;;;;;4916107;29;20454;-75
2021/01/15 14:35:19;;;;;;;16.27;14.80;;;3.10;99.90;;;;;;4915929;29;20458;-74
2021/01/15 14:37:50;;;;;;;17.80;16.20;;;3.10;99.90;;;;;;4916210;29;20964;-74
2021/01/15 14:40:18;;;;;;;15.23;13.90;;;3.10;99.90;;;;;;4915978;29;21020;-74
2021/01/15 14:42:44;;;;;;;16.33;14.87;;;3.00;99.90;;;;;;4916182;29;20513;-74
2021/01/15 14:45:13;;;;;;;16.07;14.80;;;3.00;99.90;;;;;;4916106;29;20462;-74
2021/01/15 14:47:39;;;;;;;14.90;13.70;;;3.00;99.90;;;;;;4916388;29;20509;-75
2021/01/15 14:50:08;;;;;;;15.60;14.27;;;3.10;99.90;;;;;;4915863;29;21040;-75
2021/01/15 14:52:35;;;;;;;16.53;15.33;;;3.00;99.90;;;;;;4916217;29;20462;-75
2021/01/15 14:55:01;;;;;;;17.53;16.07;;;3.00;99.90;;;;;;4916101;29;20858;-75
2021/01/15 14:57:27;;;;;;;17.57;15.83;;;3.00;99.90;;;;;;4915609;29;20824;-74
2021/01/15 14:59:53;;;;;;;17.30;15.50;;;2.90;99.90;;;;;;4915987;29;20460;-75
2021/01/15 15:02:20;;;;;;;17.00;15.40;;;2.90;99.90;;;;;;4915849;29;20472;-75
2021/01/15 15:04:46;;;;;;;16.20;14.80;;;3.00;99.90;;;;;;4915782;29;20989;-74
2021/01/15 15:07:13;;;;;;;17.60;16.07;;;2.90;99.90;;;;;;4916140;29;20467;-75
2021/01/15 15:09:39;;;;;;;15.97;14.67;;;2.90;99.90;;;;;;4915639;29;20499;-74
2021/01/15 15:12:06;;;;;;;15.63;14.20;;;2.80;99.90;;;;;;4914706;29;20467;-74
2021/01/15 15:14:32;;;;;;;15.53;14.33;;;2.80;99.90;;;;;;4915250;29;20454;-75
2021/01/15 15:16:58;;;;;;;16.80;15.50;;;2.70;99.90;;;;;;4915360;29;20451;-74
2021/01/15 15:19:25;;;;;;;15.90;14.37;;;2.70;99.90;;;;;;4915306;29;20505;-75
2021/01/15 15:21:52;;;;;;;16.07;14.70;;;2.60;99.90;;;;;;4915054;29;20460;-74
2021/01/15 15:24:18;;;;;;;16.20;14.70;;;2.60;99.90;;;;;;4914808;29;20458;-75
2021/01/15 15:26:44;;;;;;;16.33;14.97;;;2.50;99.90;;;;;;4915083;29;20458;-74
2021/01/15 15:29:11;;;;;;;14.93;13.73;;;2.40;99.90;;;;;;4914783;29;20563;-75
2021/01/15 15:31:38;;;;;;;16.13;14.73;;;2.40;99.90;;;;;;4914207;29;20522;-74
2021/01/15 15:34:04;;;;;;;15.20;13.87;;;2.40;99.90;;;;;;4914728;29;20493;-74
2021/01/15 15:36:31;;;;;;;15.43;14.10;;;2.30;99.90;;;;;;4914819;29;20613;-74
2021/01/15 15:38:57;;;;;;;15.73;14.40;;;2.30;99.90;;;;;;4915182;29;20514;-74
2021/01/15 15:41:24;;;;;;;15.70;14.33;;;2.30;99.90;;;;;;4914665;29;20466;-73
2021/01/15 15:43:51;;;;;;;16.20;14.90;;;2.30;99.90;;;;;;4914709;29;21018;-74
2021/01/15 15:46:19;;;;;;;15.87;14.57;;;2.30;99.90;;;;;;4914377;29;20461;-74
2021/01/15 15:48:46;;;;;;;15.93;14.33;;;2.30;99.90;;;;;;4914489;29;20497;-74
2021/01/15 15:51:14;;;;;;;16.43;14.93;;;2.30;99.90;;;;;;4914683;29;20881;-74
2021/01/15 15:53:44;;;;;;;16.60;15.07;;;2.30;99.90;;;;;;4914583;29;20523;-74
2021/01/15 15:56:11;;;;;;;14.90;13.80;;;2.30;99.90;;;;;;4914605;29;20463;-74
2021/01/15 16:01:59;;;;;;;15.97;14.70;;;2.30;99.90;;;;;;4914699;29;20806;-74
2021/01/15 16:04:25;;;;;;;15.63;14.33;;;2.40;99.90;;;;;;4914944;29;20458;-75
2021/01/15 16:06:52;;;;;;;15.17;13.87;;;2.40;99.90;;;;;;4914672;29;20461;-74
2021/01/15 16:09:19;;;;;;;16.07;14.77;;;2.50;99.90;;;;;;4914467;29;20503;-75
2021/01/15 16:11:45;;;;;;;13.63;12.60;;;2.40;99.90;;;;;;4914549;29;20465;-75
2021/01/15 16:14:11;;;;;;;15.37;14.13;;;2.40;99.90;;;;;;4914933;29;20511;-74
2021/01/15 16:16:37;;;;;;;15.07;13.73;;;2.50;99.90;;;;;;4914580;29;20454;-74
2021/01/15 16:19:03;;;;;;;15.77;14.67;;;2.50;99.90;;;;;;4914796;29;20454;-75
2021/01/15 16:21:35;;;;;;;16.03;14.67;;;2.50;99.90;;;;;;4914741;29;20454;-75
2021/01/15 16:24:03;;;;;;;16.77;15.37;;;2.60;99.90;;;;;;4914914;29;20864;-75
2021/01/15 16:26:33;;;;;;;16.63;15.27;;;2.50;99.90;;;;;;4914833;29;20454;-74
2021/01/15 16:29:00;;;;;;;16.53;15.17;;;2.60;99.90;;;;;;4914494;29;20581;-75
2021/01/15 16:31:26;;;;;;;16.33;14.93;;;2.70;99.90;;;;;;4914503;29;20483;-75
2021/01/15 16:33:52;;;;;;;15.57;14.33;;;2.60;99.90;;;;;;4914001;29;20478;-75
2021/01/15 16:36:19;;;;;;;16.60;15.40;;;2.60;99.90;;;;;;4914363;29;20465;-75
2021/01/15 16:38:45;;;;;;;15.43;14.33;;;2.60;99.90;;;;;;4914426;29;20443;-75
2021/01/15 16:41:11;;;;;;;16.83;15.50;;;2.70;99.90;;;;;;4914655;29;20458;-75
2021/01/15 16:43:38;;;;;;;17.83;16.07;;;2.70;99.90;;;;;;4913796;29;20466;-75
2021/01/15 16:46:04;;;;;;;17.17;15.60;;;2.80;99.90;;;;;;4914072;29;20462;-74
2021/01/15 16:48:31;;;;;;;18.67;16.80;;;2.80;99.90;;;;;;4914086;29;20482;-75
2021/01/15 16:50:57;;;;;;;17.23;15.83;;;2.80;99.90;;;;;;4914548;29;20462;-74
2021/01/15 16:53:23;;;;;;;15.37;14.10;;;2.80;99.90;;;;;;4914345;29;20463;-75
2021/01/15 16:55:49;;;;;;;16.27;14.87;;;2.80;99.90;;;;;;4913943;29;20454;-74
2021/01/15 16:58:16;;;;;;;15.27;14.10;;;2.80;99.90;;;;;;4914112;29;20466;-74
2021/01/15 17:00:43;;;;;;;14.67;13.47;;;2.80;99.90;;;;;;4914527;29;20835;-74
2021/01/15 17:03:10;;;;;;;13.10;12.10;;;2.80;99.90;;;;;;4914359;29;20794;-75
2021/01/15 17:05:37;;;;;;;14.40;13.17;;;2.80;99.90;;;;;;4914068;29;20463;-74
2021/01/15 17:08:04;;;;;;;13.80;12.73;;;2.80;99.90;;;;;;4914080;29;20885;-74
2021/01/15 17:10:32;;;;;;;13.13;12.20;;;2.80;99.90;;;;;;4914100;29;20556;-74